sensor_id;sensor_type;location;lat;lon;timestamp;P1;durP1;ratioP1;P2;durP2;ratioP2
60432;SDS011;46286;48.098;11.590;2023-02-01T00:01:24;6.18;;;3.53;;
60432;SDS011;46286;48.098;11.590;2023-02-01T00:03:50;6.18;;;3.10;;
60432;SDS011;46286;48.098;11.590;2023-02-01T00:06:15;5.15;;;2.70;;
60432;SDS011;46286;48.098;11.590;2023-02-01T00:08:41;5.07;;;2.53;;
60432;SDS011;46286;48.098;11.590;2023-02-01T00:11:07;7.07;;;2.40;;
60432;SDS011;46286;48.098;11.590;2023-02-01T00:13:37;8.27;;;3.30;;
60432;SDS011;46286;48.098;11.590;2023-02-01T00:16:05;5.43;;;2.72;;
60432;SDS011;46286;48.098;11.590;2023-02-01T00:18:33;6.45;;;2.72;;
60432;SDS011;46286;48.098;11.590;2023-02-01T00:20:59;4.93;;;2.75;;
60432;SDS011;46286;48.098;11.590;2023-02-01T00:23:25;5.10;;;2.80;;
60432;SDS011;46286;48.098;11.590;2023-02-01T00:25:51;6.15;;;2.90;;
60432;SDS011;46286;48.098;11.590;2023-02-01T00:28:17;6.57;;;2.90;;
60432;SDS011;46286;48.098;11.590;2023-02-01T00:30:42;6.40;;;2.58;;
60432;SDS011;46286;48.098;11.590;2023-02-01T00:33:08;4.63;;;2.50;;
60432;SDS011;46286;48.098;11.590;2023-02-01T00:35:34;6.05;;;2.72;;
60432;SDS011;46286;48.098;11.590;2023-02-01T00:38:00;4.50;;;2.60;;
60432;SDS011;46286;48.098;11.590;2023-02-01T00:40:26;5.13;;;2.65;;
60432;SDS011;46286;48.098;11.590;2023-02-01T00:42:52;5.63;;;2.88;;
60432;SDS011;46286;48.098;11.590;2023-02-01T00:45:18;6.18;;;2.97;;
60432;SDS011;46286;48.098;11.590;2023-02-01T00:47:44;5.95;;;2.72;;
60432;SDS011;46286;48.098;11.590;2023-02-01T00:50:09;7.35;;;3.05;;
60432;SDS011;46286;48.098;11.590;2023-02-01T00:52:35;6.15;;;2.92;;
60432;SDS011;46286;48.098;11.590;2023-02-01T00:55:01;5.45;;;2.85;;
60432;SDS011;46286;48.098;11.590;2023-02-01T00:57:26;6.05;;;3.08;;
60432;SDS011;46286;48.098;11.590;2023-02-01T00:59:52;6.03;;;3.08;;
60432;SDS011;46286;48.098;11.590;2023-02-01T01:02:17;5.88;;;3.10;;
60432;SDS011;46286;48.098;11.590;2023-02-01T01:04:43;5.95;;;3.15;;
60432;SDS011;46286;48.098;11.590;2023-02-01T01:07:09;8.38;;;3.50;;
60432;SDS011;46286;48.098;11.590;2023-02-01T01:09:34;6.80;;;3.00;;
60432;SDS011;46286;48.098;11.590;2023-02-01T01:12:00;6.78;;;3.50;;
60432;SDS011;46286;48.098;11.590;2023-02-01T01:14:30;7.53;;;3.15;;
60432;SDS011;46286;48.098;11.590;2023-02-01T01:16:57;5.53;;;2.90;;
60432;SDS011;46286;48.098;11.590;2023-02-01T01:19:22;6.20;;;3.33;;
60432;SDS011;46286;48.098;11.590;2023-02-01T01:21:48;5.90;;;3.15;;
60432;SDS011;46286;48.098;11.590;2023-02-01T01:24:13;5.88;;;3.05;;
60432;SDS011;46286;48.098;11.590;2023-02-01T01:26:40;8.07;;;3.42;;
60432;SDS011;46286;48.098;11.590;2023-02-01T01:29:05;9.32;;;3.22;;
60432;SDS011;46286;48.098;11.590;2023-02-01T01:31:31;7.15;;;3.30;;
60432;SDS011;46286;48.098;11.590;2023-02-01T01:33:57;7.97;;;3.50;;
60432;SDS011;46286;48.098;11.590;2023-02-01T01:36:25;9.27;;;4.30;;
60432;SDS011;46286;48.098;11.590;2023-02-01T01:38:52;8.55;;;3.72;;
60432;SDS011;46286;48.098;11.590;2023-02-01T01:41:19;6.50;;;3.63;;
60432;SDS011;46286;48.098;11.590;2023-02-01T01:46:21;7.65;;;3.80;;
60432;SDS011;46286;48.098;11.590;2023-02-01T01:48:53;7.13;;;4.07;;
60432;SDS011;46286;48.098;11.590;2023-02-01T01:52:04;8.25;;;4.43;;
60432;SDS011;46286;48.098;11.590;2023-02-01T01:54:29;8.00;;;4.22;;
60432;SDS011;46286;48.098;11.590;2023-02-01T01:56:58;7.85;;;3.95;;
60432;SDS011;46286;48.098;11.590;2023-02-01T01:59:28;8.98;;;4.65;;
60432;SDS011;46286;48.098;11.590;2023-02-01T02:01:56;8.20;;;4.57;;
60432;SDS011;46286;48.098;11.590;2023-02-01T02:04:22;10.68;;;5.22;;
60432;SDS011;46286;48.098;11.590;2023-02-01T02:06:56;9.27;;;4.90;;
60432;SDS011;46286;48.098;11.590;2023-02-01T02:09:26;8.85;;;4.70;;
60432;SDS011;46286;48.098;11.590;2023-02-01T02:11:52;7.43;;;4.05;;
60432;SDS011;46286;48.098;11.590;2023-02-01T02:14:18;14.38;;;4.85;;
60432;SDS011;46286;48.098;11.590;2023-02-01T02:16:51;6.70;;;3.97;;
60432;SDS011;46286;48.098;11.590;2023-02-01T02:35:45;7.05;;;4.15;;
60432;SDS011;46286;48.098;11.590;2023-02-01T02:43:35;8.20;;;4.22;;
60432;SDS011;46286;48.098;11.590;2023-02-01T02:49:23;6.75;;;4.00;;
60432;SDS011;46286;48.098;11.590;2023-02-01T02:51:56;8.65;;;3.88;;
60432;SDS011;46286;48.098;11.590;2023-02-01T02:54:46;10.50;;;4.20;;
60432;SDS011;46286;48.098;11.590;2023-02-01T02:57:20;6.88;;;3.58;;
60432;SDS011;46286;48.098;11.590;2023-02-01T03:00:09;7.15;;;3.65;;
60432;SDS011;46286;48.098;11.590;2023-02-01T03:02:55;8.90;;;3.83;;
60432;SDS011;46286;48.098;11.590;2023-02-01T03:05:41;10.20;;;4.40;;
60432;SDS011;46286;48.098;11.590;2023-02-01T03:11:13;8.30;;;4.05;;
60432;SDS011;46286;48.098;11.590;2023-02-01T03:13:41;8.38;;;4.35;;
60432;SDS011;46286;48.098;11.590;2023-02-01T03:19:11;7.80;;;3.92;;
60432;SDS011;46286;48.098;11.590;2023-02-01T03:22:02;7.03;;;4.43;;
60432;SDS011;46286;48.098;11.590;2023-02-01T03:24:46;8.18;;;4.47;;
60432;SDS011;46286;48.098;11.590;2023-02-01T03:28:19;7.20;;;3.70;;
60432;SDS011;46286;48.098;11.590;2023-02-01T03:32:48;6.57;;;3.55;;
60432;SDS011;46286;48.098;11.590;2023-02-01T03:35:27;8.05;;;4.60;;
60432;SDS011;46286;48.098;11.590;2023-02-01T03:40:48;6.07;;;3.28;;
60432;SDS011;46286;48.098;11.590;2023-02-01T03:43:22;8.23;;;3.72;;
60432;SDS011;46286;48.098;11.590;2023-02-01T03:45:50;8.05;;;4.40;;
60432;SDS011;46286;48.098;11.590;2023-02-01T03:48:19;9.75;;;4.25;;
60432;SDS011;46286;48.098;11.590;2023-02-01T03:50:49;7.28;;;4.13;;
60432;SDS011;46286;48.098;11.590;2023-02-01T03:53:20;6.90;;;3.70;;
60432;SDS011;46286;48.098;11.590;2023-02-01T03:55:49;6.30;;;3.45;;
60432;SDS011;46286;48.098;11.590;2023-02-01T03:58:18;8.35;;;3.97;;
60432;SDS011;46286;48.098;11.590;2023-02-01T04:00:46;6.93;;;4.00;;
60432;SDS011;46286;48.098;11.590;2023-02-01T04:03:19;5.47;;;2.97;;
60432;SDS011;46286;48.098;11.590;2023-02-01T04:05:44;8.07;;;3.95;;
60432;SDS011;46286;48.098;11.590;2023-02-01T04:08:10;8.65;;;3.88;;
60432;SDS011;46286;48.098;11.590;2023-02-01T04:10:35;7.15;;;4.20;;
60432;SDS011;46286;48.098;11.590;2023-02-01T04:13:01;7.10;;;3.78;;
60432;SDS011;46286;48.098;11.590;2023-02-01T04:15:26;7.30;;;4.00;;
60432;SDS011;46286;48.098;11.590;2023-02-01T04:17:52;7.72;;;4.25;;
60432;SDS011;46286;48.098;11.590;2023-02-01T04:20:17;5.60;;;3.22;;
60432;SDS011;46286;48.098;11.590;2023-02-01T04:22:43;6.32;;;3.65;;
60432;SDS011;46286;48.098;11.590;2023-02-01T04:25:08;7.38;;;4.70;;
60432;SDS011;46286;48.098;11.590;2023-02-01T04:27:35;7.68;;;4.00;;
60432;SDS011;46286;48.098;11.590;2023-02-01T04:30:00;6.97;;;3.60;;
60432;SDS011;46286;48.098;11.590;2023-02-01T04:32:26;6.90;;;3.42;;
60432;SDS011;46286;48.098;11.590;2023-02-01T04:34:51;7.72;;;3.42;;
60432;SDS011;46286;48.098;11.590;2023-02-01T04:37:17;7.13;;;4.00;;
60432;SDS011;46286;48.098;11.590;2023-02-01T04:39:42;7.72;;;4.25;;
60432;SDS011;46286;48.098;11.590;2023-02-01T04:42:08;8.90;;;4.28;;
60432;SDS011;46286;48.098;11.590;2023-02-01T04:44:34;8.18;;;3.55;;
60432;SDS011;46286;48.098;11.590;2023-02-01T04:47:02;9.50;;;4.32;;
60432;SDS011;46286;48.098;11.590;2023-02-01T04:49:27;7.95;;;3.53;;
60432;SDS011;46286;48.098;11.590;2023-02-01T04:51:53;8.13;;;3.88;;
60432;SDS011;46286;48.098;11.590;2023-02-01T04:54:18;6.07;;;3.47;;
60432;SDS011;46286;48.098;11.590;2023-02-01T04:56:44;10.32;;;4.97;;
60432;SDS011;46286;48.098;11.590;2023-02-01T04:59:10;8.20;;;4.10;;
60432;SDS011;46286;48.098;11.590;2023-02-01T05:01:36;8.35;;;4.35;;
60432;SDS011;46286;48.098;11.590;2023-02-01T05:04:02;6.72;;;3.83;;
60432;SDS011;46286;48.098;11.590;2023-02-01T05:06:28;10.50;;;4.25;;
60432;SDS011;46286;48.098;11.590;2023-02-01T05:08:53;10.00;;;4.30;;
60432;SDS011;46286;48.098;11.590;2023-02-01T05:11:19;8.80;;;4.22;;
60432;SDS011;46286;48.098;11.590;2023-02-01T05:14:03;11.13;;;4.37;;
60432;SDS011;46286;48.098;11.590;2023-02-01T05:16:28;5.75;;;3.72;;
60432;SDS011;46286;48.098;11.590;2023-02-01T05:18:54;6.80;;;4.20;;
60432;SDS011;46286;48.098;11.590;2023-02-01T05:21:19;8.65;;;3.92;;
60432;SDS011;46286;48.098;11.590;2023-02-01T05:23:45;7.60;;;3.92;;
60432;SDS011;46286;48.098;11.590;2023-02-01T05:26:29;8.65;;;4.22;;
60432;SDS011;46286;48.098;11.590;2023-02-01T05:28:55;8.38;;;4.53;;
60432;SDS011;46286;48.098;11.590;2023-02-01T05:31:20;9.75;;;4.55;;
60432;SDS011;46286;48.098;11.590;2023-02-01T05:33:46;8.77;;;4.53;;
60432;SDS011;46286;48.098;11.590;2023-02-01T05:36:12;8.65;;;4.57;;
60432;SDS011;46286;48.098;11.590;2023-02-01T05:38:38;8.13;;;4.28;;
60432;SDS011;46286;48.098;11.590;2023-02-01T05:41:04;8.75;;;4.47;;
60432;SDS011;46286;48.098;11.590;2023-02-01T05:43:29;8.18;;;4.60;;
60432;SDS011;46286;48.098;11.590;2023-02-01T05:45:55;8.43;;;3.75;;
60432;SDS011;46286;48.098;11.590;2023-02-01T05:48:20;14.45;;;6.32;;
60432;SDS011;46286;48.098;11.590;2023-02-01T05:50:46;14.30;;;4.63;;
60432;SDS011;46286;48.098;11.590;2023-02-01T05:53:12;8.75;;;4.63;;
60432;SDS011;46286;48.098;11.590;2023-02-01T05:55:38;10.77;;;4.88;;
60432;SDS011;46286;48.098;11.590;2023-02-01T05:58:03;8.65;;;4.72;;
60432;SDS011;46286;48.098;11.590;2023-02-01T06:00:29;9.15;;;4.72;;
60432;SDS011;46286;48.098;11.590;2023-02-01T06:02:55;9.93;;;4.68;;
60432;SDS011;46286;48.098;11.590;2023-02-01T06:05:21;10.30;;;4.30;;
60432;SDS011;46286;48.098;11.590;2023-02-01T06:07:46;11.90;;;4.50;;
60432;SDS011;46286;48.098;11.590;2023-02-01T06:10:12;10.35;;;4.50;;
60432;SDS011;46286;48.098;11.590;2023-02-01T06:12:38;13.18;;;4.68;;
60432;SDS011;46286;48.098;11.590;2023-02-01T06:15:04;13.57;;;5.88;;
60432;SDS011;46286;48.098;11.590;2023-02-01T06:17:30;11.02;;;5.57;;
60432;SDS011;46286;48.098;11.590;2023-02-01T06:19:56;12.27;;;5.70;;
60432;SDS011;46286;48.098;11.590;2023-02-01T06:22:21;9.50;;;4.70;;
60432;SDS011;46286;48.098;11.590;2023-02-01T06:24:47;9.63;;;5.35;;
60432;SDS011;46286;48.098;11.590;2023-02-01T06:27:13;14.95;;;5.60;;
60432;SDS011;46286;48.098;11.590;2023-02-01T06:29:40;12.13;;;5.00;;
60432;SDS011;46286;48.098;11.590;2023-02-01T06:32:06;7.82;;;4.07;;
60432;SDS011;46286;48.098;11.590;2023-02-01T06:34:32;9.10;;;4.88;;
60432;SDS011;46286;48.098;11.590;2023-02-01T06:36:57;13.93;;;5.20;;
60432;SDS011;46286;48.098;11.590;2023-02-01T06:39:23;12.52;;;5.68;;
60432;SDS011;46286;48.098;11.590;2023-02-01T06:41:48;14.77;;;6.15;;
60432;SDS011;46286;48.098;11.590;2023-02-01T06:44:14;14.35;;;6.85;;
60432;SDS011;46286;48.098;11.590;2023-02-01T06:46:40;15.40;;;6.40;;
60432;SDS011;46286;48.098;11.590;2023-02-01T06:49:06;13.68;;;6.32;;
60432;SDS011;46286;48.098;11.590;2023-02-01T06:51:32;13.02;;;5.18;;
60432;SDS011;46286;48.098;11.590;2023-02-01T06:53:58;7.72;;;3.83;;
60432;SDS011;46286;48.098;11.590;2023-02-01T06:56:23;17.73;;;7.45;;
60432;SDS011;46286;48.098;11.590;2023-02-01T06:58:49;15.18;;;6.57;;
60432;SDS011;46286;48.098;11.590;2023-02-01T07:01:15;9.60;;;5.20;;
60432;SDS011;46286;48.098;11.590;2023-02-01T07:03:41;14.07;;;5.60;;
60432;SDS011;46286;48.098;11.590;2023-02-01T07:06:07;10.32;;;5.13;;
60432;SDS011;46286;48.098;11.590;2023-02-01T07:08:35;11.82;;;5.25;;
60432;SDS011;46286;48.098;11.590;2023-02-01T07:11:06;27.95;;;9.77;;
60432;SDS011;46286;48.098;11.590;2023-02-01T07:13:36;11.32;;;5.10;;
60432;SDS011;46286;48.098;11.590;2023-02-01T07:16:02;9.05;;;4.45;;
60432;SDS011;46286;48.098;11.590;2023-02-01T07:18:29;11.93;;;5.28;;
60432;SDS011;46286;48.098;11.590;2023-02-01T07:20:55;8.75;;;4.78;;
60432;SDS011;46286;48.098;11.590;2023-02-01T07:23:22;11.00;;;5.78;;
60432;SDS011;46286;48.098;11.590;2023-02-01T07:25:48;8.40;;;4.57;;
60432;SDS011;46286;48.098;11.590;2023-02-01T07:28:14;13.50;;;6.30;;
60432;SDS011;46286;48.098;11.590;2023-02-01T07:30:40;7.80;;;3.80;;
60432;SDS011;46286;48.098;11.590;2023-02-01T07:33:06;7.78;;;4.18;;
60432;SDS011;46286;48.098;11.590;2023-02-01T07:35:32;7.25;;;3.53;;
60432;SDS011;46286;48.098;11.590;2023-02-01T07:37:57;8.35;;;3.95;;
60432;SDS011;46286;48.098;11.590;2023-02-01T07:40:23;8.73;;;3.88;;
60432;SDS011;46286;48.098;11.590;2023-02-01T07:42:56;8.38;;;3.47;;
60432;SDS011;46286;48.098;11.590;2023-02-01T07:45:22;5.85;;;3.30;;
60432;SDS011;46286;48.098;11.590;2023-02-01T07:47:48;6.20;;;3.38;;
60432;SDS011;46286;48.098;11.590;2023-02-01T07:50:16;8.45;;;3.45;;
60432;SDS011;46286;48.098;11.590;2023-02-01T07:52:41;11.05;;;3.58;;
60432;SDS011;46286;48.098;11.590;2023-02-01T07:55:07;6.65;;;3.17;;
60432;SDS011;46286;48.098;11.590;2023-02-01T07:57:33;5.10;;;2.80;;
60432;SDS011;46286;48.098;11.590;2023-02-01T07:59:58;6.68;;;3.10;;
60432;SDS011;46286;48.098;11.590;2023-02-01T08:02:43;6.40;;;3.30;;
60432;SDS011;46286;48.098;11.590;2023-02-01T08:05:08;6.22;;;3.10;;
60432;SDS011;46286;48.098;11.590;2023-02-01T08:07:34;5.97;;;2.80;;
60432;SDS011;46286;48.098;11.590;2023-02-01T08:09:59;7.10;;;3.17;;
60432;SDS011;46286;48.098;11.590;2023-02-01T08:12:25;5.53;;;3.08;;
60432;SDS011;46286;48.098;11.590;2023-02-01T08:14:52;11.85;;;3.05;;
60432;SDS011;46286;48.098;11.590;2023-02-01T08:17:18;4.57;;;2.53;;
60432;SDS011;46286;48.098;11.590;2023-02-01T08:19:44;9.18;;;3.15;;
60432;SDS011;46286;48.098;11.590;2023-02-01T08:22:10;4.65;;;2.47;;
60432;SDS011;46286;48.098;11.590;2023-02-01T08:24:36;8.20;;;2.83;;
60432;SDS011;46286;48.098;11.590;2023-02-01T08:27:04;5.97;;;2.63;;
60432;SDS011;46286;48.098;11.590;2023-02-01T08:29:30;4.95;;;2.60;;
60432;SDS011;46286;48.098;11.590;2023-02-01T08:31:56;4.38;;;2.67;;
60432;SDS011;46286;48.098;11.590;2023-02-01T08:34:21;5.78;;;2.85;;
60432;SDS011;46286;48.098;11.590;2023-02-01T08:36:47;4.32;;;2.60;;
60432;SDS011;46286;48.098;11.590;2023-02-01T08:39:13;8.20;;;3.30;;
60432;SDS011;46286;48.098;11.590;2023-02-01T08:41:38;4.18;;;2.40;;
60432;SDS011;46286;48.098;11.590;2023-02-01T08:44:04;5.53;;;3.05;;
60432;SDS011;46286;48.098;11.590;2023-02-01T08:46:30;5.22;;;2.42;;
60432;SDS011;46286;48.098;11.590;2023-02-01T08:48:55;4.88;;;2.47;;
60432;SDS011;46286;48.098;11.590;2023-02-01T08:51:22;4.97;;;2.70;;
60432;SDS011;46286;48.098;11.590;2023-02-01T08:53:48;4.10;;;2.17;;
60432;SDS011;46286;48.098;11.590;2023-02-01T08:56:15;4.45;;;2.70;;
60432;SDS011;46286;48.098;11.590;2023-02-01T08:58:41;5.93;;;2.80;;
60432;SDS011;46286;48.098;11.590;2023-02-01T09:01:12;6.97;;;3.05;;
60432;SDS011;46286;48.098;11.590;2023-02-01T09:03:40;4.75;;;2.65;;
60432;SDS011;46286;48.098;11.590;2023-02-01T09:06:07;6.55;;;2.78;;
60432;SDS011;46286;48.098;11.590;2023-02-01T09:08:35;5.95;;;3.20;;
60432;SDS011;46286;48.098;11.590;2023-02-01T09:11:03;5.68;;;3.10;;
60432;SDS011;46286;48.098;11.590;2023-02-01T09:13:30;4.85;;;2.90;;
60432;SDS011;46286;48.098;11.590;2023-02-01T09:15:56;5.80;;;2.90;;
60432;SDS011;46286;48.098;11.590;2023-02-01T09:18:22;4.60;;;2.30;;
60432;SDS011;46286;48.098;11.590;2023-02-01T09:20:48;8.15;;;2.78;;
60432;SDS011;46286;48.098;11.590;2023-02-01T09:23:13;6.68;;;2.45;;
60432;SDS011;46286;48.098;11.590;2023-02-01T09:25:39;7.43;;;3.08;;
60432;SDS011;46286;48.098;11.590;2023-02-01T09:28:05;5.65;;;2.60;;
60432;SDS011;46286;48.098;11.590;2023-02-01T09:30:34;6.50;;;2.88;;
60432;SDS011;46286;48.098;11.590;2023-02-01T09:33:01;3.63;;;2.00;;
60432;SDS011;46286;48.098;11.590;2023-02-01T09:35:28;4.75;;;2.50;;
60432;SDS011;46286;48.098;11.590;2023-02-01T09:37:53;5.68;;;2.65;;
60432;SDS011;46286;48.098;11.590;2023-02-01T09:40:19;5.65;;;2.70;;
60432;SDS011;46286;48.098;11.590;2023-02-01T09:45:42;4.45;;;2.60;;
60432;SDS011;46286;48.098;11.590;2023-02-01T09:48:17;5.32;;;3.15;;
60432;SDS011;46286;48.098;11.590;2023-02-01T09:50:48;4.72;;;2.35;;
60432;SDS011;46286;48.098;11.590;2023-02-01T09:53:30;5.32;;;2.70;;
60432;SDS011;46286;48.098;11.590;2023-02-01T09:56:06;5.80;;;2.85;;
60432;SDS011;46286;48.098;11.590;2023-02-01T09:58:37;5.22;;;2.63;;
60432;SDS011;46286;48.098;11.590;2023-02-01T10:01:04;6.13;;;2.83;;
60432;SDS011;46286;48.098;11.590;2023-02-01T10:03:35;4.43;;;2.47;;
60432;SDS011;46286;48.098;11.590;2023-02-01T10:17:13;6.07;;;2.85;;
60432;SDS011;46286;48.098;11.590;2023-02-01T10:25:29;5.25;;;2.70;;
60432;SDS011;46286;48.098;11.590;2023-02-01T10:28:01;7.03;;;2.67;;
60432;SDS011;46286;48.098;11.590;2023-02-01T10:30:40;6.45;;;2.97;;
60432;SDS011;46286;48.098;11.590;2023-02-01T10:36:01;8.32;;;2.70;;
60432;SDS011;46286;48.098;11.590;2023-02-01T10:38:35;5.85;;;2.78;;
60432;SDS011;46286;48.098;11.590;2023-02-01T10:41:02;8.00;;;2.78;;
60432;SDS011;46286;48.098;11.590;2023-02-01T10:43:37;4.93;;;2.40;;
60432;SDS011;46286;48.098;11.590;2023-02-01T10:46:04;5.03;;;2.63;;
60432;SDS011;46286;48.098;11.590;2023-02-01T10:48:31;6.15;;;2.70;;
60432;SDS011;46286;48.098;11.590;2023-02-01T10:50:58;8.43;;;2.80;;
60432;SDS011;46286;48.098;11.590;2023-02-01T10:56:12;4.70;;;2.58;;
60432;SDS011;46286;48.098;11.590;2023-02-01T10:58:45;3.53;;;2.08;;
60432;SDS011;46286;48.098;11.590;2023-02-01T11:01:16;6.97;;;3.28;;
60432;SDS011;46286;48.098;11.590;2023-02-01T11:03:51;6.50;;;2.70;;
60432;SDS011;46286;48.098;11.590;2023-02-01T11:06:39;6.95;;;3.08;;
60432;SDS011;46286;48.098;11.590;2023-02-01T11:11:32;4.68;;;2.55;;
60432;SDS011;46286;48.098;11.590;2023-02-01T11:16:54;5.05;;;2.72;;
60432;SDS011;46286;48.098;11.590;2023-02-01T11:19:20;5.85;;;2.47;;
60432;SDS011;46286;48.098;11.590;2023-02-01T11:21:49;5.68;;;2.90;;
60432;SDS011;46286;48.098;11.590;2023-02-01T11:24:20;6.53;;;3.13;;
60432;SDS011;46286;48.098;11.590;2023-02-01T11:26:47;9.73;;;3.17;;
60432;SDS011;46286;48.098;11.590;2023-02-01T11:29:17;5.60;;;3.05;;
60432;SDS011;46286;48.098;11.590;2023-02-01T11:31:47;7.55;;;3.08;;
60432;SDS011;46286;48.098;11.590;2023-02-01T11:36:50;5.85;;;3.00;;
60432;SDS011;46286;48.098;11.590;2023-02-01T11:39:20;7.13;;;3.40;;
60432;SDS011;46286;48.098;11.590;2023-02-01T11:42:05;5.57;;;3.10;;
60432;SDS011;46286;48.098;11.590;2023-02-01T11:44:39;4.60;;;2.67;;
60432;SDS011;46286;48.098;11.590;2023-02-01T11:49:51;6.70;;;3.45;;
60432;SDS011;46286;48.098;11.590;2023-02-01T12:03:37;5.43;;;3.08;;
60432;SDS011;46286;48.098;11.590;2023-02-01T12:11:33;8.15;;;3.50;;
60432;SDS011;46286;48.098;11.590;2023-02-01T12:28:05;5.50;;;3.00;;
60432;SDS011;46286;48.098;11.590;2023-02-01T12:31:01;6.22;;;3.55;;
60432;SDS011;46286;48.098;11.590;2023-02-01T12:36:18;6.35;;;2.83;;
60432;SDS011;46286;48.098;11.590;2023-02-01T12:44:34;12.90;;;3.70;;
60432;SDS011;46286;48.098;11.590;2023-02-01T12:47:12;6.53;;;3.00;;
60432;SDS011;46286;48.098;11.590;2023-02-01T12:49:49;7.30;;;3.38;;
60432;SDS011;46286;48.098;11.590;2023-02-01T12:52:28;4.90;;;2.78;;
60432;SDS011;46286;48.098;11.590;2023-02-01T12:55:23;8.95;;;3.10;;
60432;SDS011;46286;48.098;11.590;2023-02-01T12:57:56;8.00;;;3.00;;
60432;SDS011;46286;48.098;11.590;2023-02-01T13:00:37;5.68;;;2.65;;
60432;SDS011;46286;48.098;11.590;2023-02-01T13:06:06;5.70;;;2.47;;
60432;SDS011;46286;48.098;11.590;2023-02-01T13:11:09;4.95;;;2.45;;
60432;SDS011;46286;48.098;11.590;2023-02-01T13:16:27;6.75;;;3.58;;
60432;SDS011;46286;48.098;11.590;2023-02-01T13:19:05;8.25;;;2.50;;
60432;SDS011;46286;48.098;11.590;2023-02-01T13:21:56;7.22;;;3.17;;
60432;SDS011;46286;48.098;11.590;2023-02-01T13:29:29;7.75;;;3.10;;
60432;SDS011;46286;48.098;11.590;2023-02-01T13:32:17;6.32;;;3.15;;
60432;SDS011;46286;48.098;11.590;2023-02-01T13:35:03;8.55;;;3.10;;
60432;SDS011;46286;48.098;11.590;2023-02-01T13:37:56;8.57;;;3.38;;
60432;SDS011;46286;48.098;11.590;2023-02-01T13:40:42;6.72;;;2.70;;
60432;SDS011;46286;48.098;11.590;2023-02-01T13:45:48;10.85;;;3.35;;
60432;SDS011;46286;48.098;11.590;2023-02-01T13:48:35;7.38;;;3.63;;
60432;SDS011;46286;48.098;11.590;2023-02-01T13:51:07;5.57;;;2.72;;
60432;SDS011;46286;48.098;11.590;2023-02-01T13:53:34;5.18;;;2.60;;
60432;SDS011;46286;48.098;11.590;2023-02-01T13:56:03;5.97;;;3.30;;
60432;SDS011;46286;48.098;11.590;2023-02-01T13:58:35;5.40;;;2.75;;
60432;SDS011;46286;48.098;11.590;2023-02-01T14:01:31;8.02;;;3.13;;
60432;SDS011;46286;48.098;11.590;2023-02-01T14:04:03;5.97;;;2.60;;
60432;SDS011;46286;48.098;11.590;2023-02-01T14:12:13;5.20;;;2.75;;
60432;SDS011;46286;48.098;11.590;2023-02-01T14:15:22;8.23;;;2.92;;
60432;SDS011;46286;48.098;11.590;2023-02-01T14:17:52;7.32;;;2.97;;
60432;SDS011;46286;48.098;11.590;2023-02-01T14:20:40;8.10;;;3.47;;
60432;SDS011;46286;48.098;11.590;2023-02-01T14:23:14;4.53;;;2.65;;
60432;SDS011;46286;48.098;11.590;2023-02-01T14:25:42;6.78;;;2.85;;
60432;SDS011;46286;48.098;11.590;2023-02-01T14:28:19;5.97;;;2.60;;
60432;SDS011;46286;48.098;11.590;2023-02-01T14:30:50;6.13;;;3.17;;
60432;SDS011;46286;48.098;11.590;2023-02-01T14:33:22;6.85;;;4.10;;
60432;SDS011;46286;48.098;11.590;2023-02-01T14:36:07;5.72;;;2.38;;
60432;SDS011;46286;48.098;11.590;2023-02-01T14:41:15;5.53;;;2.30;;
60432;SDS011;46286;48.098;11.590;2023-02-01T14:49:56;6.25;;;2.22;;
60432;SDS011;46286;48.098;11.590;2023-02-01T14:52:32;6.80;;;2.45;;
60432;SDS011;46286;48.098;11.590;2023-02-01T14:55:02;3.72;;;2.42;;
60432;SDS011;46286;48.098;11.590;2023-02-01T14:57:33;7.50;;;2.78;;
60432;SDS011;46286;48.098;11.590;2023-02-01T15:00:11;5.65;;;2.40;;
60432;SDS011;46286;48.098;11.590;2023-02-01T15:02:43;5.40;;;2.60;;
60432;SDS011;46286;48.098;11.590;2023-02-01T15:05:22;5.68;;;2.20;;
60432;SDS011;46286;48.098;11.590;2023-02-01T15:07:51;5.90;;;2.40;;
60432;SDS011;46286;48.098;11.590;2023-02-01T15:10:17;7.38;;;2.53;;
60432;SDS011;46286;48.098;11.590;2023-02-01T15:12:45;7.45;;;2.60;;
60432;SDS011;46286;48.098;11.590;2023-02-01T15:15:23;9.82;;;2.50;;
60432;SDS011;46286;48.098;11.590;2023-02-01T15:17:57;6.57;;;2.72;;
60432;SDS011;46286;48.098;11.590;2023-02-01T15:20:28;5.45;;;2.33;;
60432;SDS011;46286;48.098;11.590;2023-02-01T15:23:02;7.05;;;2.40;;
60432;SDS011;46286;48.098;11.590;2023-02-01T15:25:31;5.50;;;2.22;;
60432;SDS011;46286;48.098;11.590;2023-02-01T15:28:04;8.10;;;2.63;;
60432;SDS011;46286;48.098;11.590;2023-02-01T15:30:31;8.63;;;2.45;;
60432;SDS011;46286;48.098;11.590;2023-02-01T15:35:41;7.50;;;2.70;;
60432;SDS011;46286;48.098;11.590;2023-02-01T15:43:43;9.27;;;2.75;;
60432;SDS011;46286;48.098;11.590;2023-02-01T15:46:33;6.05;;;2.80;;
60432;SDS011;46286;48.098;11.590;2023-02-01T15:49:02;9.85;;;3.67;;
60432;SDS011;46286;48.098;11.590;2023-02-01T15:51:29;9.45;;;3.63;;
60432;SDS011;46286;48.098;11.590;2023-02-01T15:54:02;6.38;;;3.00;;
60432;SDS011;46286;48.098;11.590;2023-02-01T15:56:37;8.73;;;2.92;;
60432;SDS011;46286;48.098;11.590;2023-02-01T15:59:12;7.13;;;2.90;;
60432;SDS011;46286;48.098;11.590;2023-02-01T16:01:41;7.75;;;3.35;;
60432;SDS011;46286;48.098;11.590;2023-02-01T16:06:49;3.80;;;2.05;;
60432;SDS011;46286;48.098;11.590;2023-02-01T16:09:18;10.43;;;3.50;;
60432;SDS011;46286;48.098;11.590;2023-02-01T16:14:21;5.55;;;2.63;;
60432;SDS011;46286;48.098;11.590;2023-02-01T16:16:47;7.03;;;2.47;;
60432;SDS011;46286;48.098;11.590;2023-02-01T16:19:13;13.07;;;2.55;;
60432;SDS011;46286;48.098;11.590;2023-02-01T16:21:38;4.53;;;2.15;;
60432;SDS011;46286;48.098;11.590;2023-02-01T16:24:04;4.57;;;2.33;;
60432;SDS011;46286;48.098;11.590;2023-02-01T16:26:30;4.55;;;2.30;;
60432;SDS011;46286;48.098;11.590;2023-02-01T16:28:59;7.60;;;2.40;;
60432;SDS011;46286;48.098;11.590;2023-02-01T16:31:29;4.32;;;2.05;;
60432;SDS011;46286;48.098;11.590;2023-02-01T16:33:56;5.20;;;2.63;;
60432;SDS011;46286;48.098;11.590;2023-02-01T16:36:22;6.95;;;2.60;;
60432;SDS011;46286;48.098;11.590;2023-02-01T16:38:49;6.28;;;2.83;;
60432;SDS011;46286;48.098;11.590;2023-02-01T16:41:16;6.03;;;2.47;;
60432;SDS011;46286;48.098;11.590;2023-02-01T16:43:43;4.18;;;2.30;;
60432;SDS011;46286;48.098;11.590;2023-02-01T16:46:11;6.97;;;2.97;;
60432;SDS011;46286;48.098;11.590;2023-02-01T16:48:45;5.05;;;2.20;;
60432;SDS011;46286;48.098;11.590;2023-02-01T16:51:15;6.32;;;2.72;;
60432;SDS011;46286;48.098;11.590;2023-02-01T16:53:42;6.28;;;2.58;;
60432;SDS011;46286;48.098;11.590;2023-02-01T16:56:19;6.68;;;2.00;;
60432;SDS011;46286;48.098;11.590;2023-02-01T16:58:47;5.68;;;2.50;;
60432;SDS011;46286;48.098;11.590;2023-02-01T17:01:14;8.10;;;2.50;;
60432;SDS011;46286;48.098;11.590;2023-02-01T17:03:40;9.02;;;2.13;;
60432;SDS011;46286;48.098;11.590;2023-02-01T17:06:09;9.63;;;3.28;;
60432;SDS011;46286;48.098;11.590;2023-02-01T17:08:37;8.38;;;2.55;;
60432;SDS011;46286;48.098;11.590;2023-02-01T17:11:06;5.50;;;2.25;;
60432;SDS011;46286;48.098;11.590;2023-02-01T17:13:32;7.07;;;2.60;;
60432;SDS011;46286;48.098;11.590;2023-02-01T17:18:43;3.33;;;1.67;;
60432;SDS011;46286;48.098;11.590;2023-02-01T17:21:11;5.75;;;2.28;;
60432;SDS011;46286;48.098;11.590;2023-02-01T17:23:49;7.30;;;2.63;;
60432;SDS011;46286;48.098;11.590;2023-02-01T17:26:15;5.38;;;2.20;;
60432;SDS011;46286;48.098;11.590;2023-02-01T17:28:41;7.25;;;2.50;;